createdAt,value
2023-03-19T00:04:46.982Z,2.28
2023-03-19T00:09:52.023Z,2.10
2023-03-19T00:14:55.935Z,3.05
2023-03-19T00:19:59.654Z,2.15
2023-03-19T00:25:05.299Z,2.60
2023-03-19T00:30:10.292Z,2.58
2023-03-19T00:35:14.290Z,2.85
2023-03-19T00:40:19.749Z,2.37
2023-03-19T00:45:23.872Z,2.53
2023-03-19T00:50:27.576Z,2.65
2023-03-19T00:55:32.865Z,2.65
2023-03-19T01:00:38.255Z,2.80
2023-03-19T01:05:42.021Z,3.33
2023-03-19T01:10:47.337Z,3.60
2023-03-19T01:15:54.448Z,3.78
2023-03-19T01:20:58.931Z,4.07
2023-03-19T01:26:04.702Z,4.60
2023-03-19T01:31:09.980Z,4.28
2023-03-19T01:36:14.948Z,4.25
2023-03-19T01:41:25.359Z,4.93
2023-03-19T01:46:34.291Z,4.30
2023-03-19T01:51:42.698Z,4.95
2023-03-19T01:56:51.274Z,5.25
2023-03-19T02:01:59.448Z,4.95
2023-03-19T02:07:05.042Z,5.12
2023-03-19T02:12:10.855Z,4.93
2023-03-19T02:17:15.068Z,5.85
2023-03-19T02:22:22.661Z,6.03
2023-03-19T02:32:32.409Z,5.78
2023-03-19T02:37:36.226Z,7.57
2023-03-19T02:42:41.572Z,7.70
2023-03-19T02:47:45.308Z,7.20
2023-03-19T02:52:49.016Z,7.78
2023-03-19T02:57:54.642Z,7.78
2023-03-19T03:02:59.109Z,8.00
2023-03-19T03:08:03.219Z,9.88
2023-03-19T03:13:08.605Z,10.45
2023-03-19T03:18:12.384Z,11.32
2023-03-19T03:23:17.194Z,11.45
2023-03-19T03:28:22.366Z,11.63
2023-03-19T03:33:26.184Z,12.20
2023-03-19T03:38:29.990Z,12.30
2023-03-19T03:43:35.177Z,11.57
2023-03-19T03:48:38.986Z,12.25
2023-03-19T03:53:42.796Z,13.30
2023-03-19T03:58:48.713Z,11.63
2023-03-19T04:03:53.144Z,14.15
2023-03-19T04:08:56.980Z,13.38
2023-03-19T04:14:03.358Z,14.40
2023-03-19T04:19:08.975Z,13.70
2023-03-19T04:24:12.951Z,14.32
2023-03-19T04:29:18.821Z,13.23
2023-03-19T04:34:22.663Z,13.65
2023-03-19T04:39:27.052Z,13.02
2023-03-19T04:44:32.150Z,12.48
2023-03-19T04:49:37.394Z,13.82
2023-03-19T04:54:41.325Z,14.23
2023-03-19T04:59:46.911Z,13.48
2023-03-19T05:04:51.080Z,14.05
2023-03-19T05:09:54.893Z,15.32
2023-03-19T05:15:00.515Z,15.13
2023-03-19T05:20:06.504Z,14.40
2023-03-19T05:25:10.964Z,14.25
2023-03-19T05:30:19.107Z,13.68
2023-03-19T05:35:24.785Z,12.55
2023-03-19T05:40:29.321Z,12.37
2023-03-19T05:45:35.810Z,13.55
2023-03-19T05:50:42.525Z,12.15
2023-03-19T05:55:48.272Z,13.57
2023-03-19T06:00:56.124Z,12.98
2023-03-19T06:06:00.006Z,14.30
2023-03-19T06:11:07.331Z,14.57
2023-03-19T06:16:13.119Z,13.77
2023-03-19T06:21:17.493Z,14.27
2023-03-19T06:26:21.390Z,13.82
2023-03-19T06:31:27.610Z,12.88
2023-03-19T06:36:32.572Z,11.43
2023-03-19T06:41:38.708Z,11.98
2023-03-19T06:46:44.060Z,11.55
2023-03-19T06:51:47.796Z,8.93
2023-03-19T06:56:51.493Z,10.93
2023-03-19T07:01:56.575Z,8.73
2023-03-19T07:07:00.467Z,8.00
2023-03-19T07:12:04.741Z,9.27
2023-03-19T07:17:10.461Z,8.70
2023-03-19T07:22:14.262Z,9.60
2023-03-19T07:27:18.033Z,9.25
2023-03-19T07:32:23.464Z,7.40
2023-03-19T07:37:27.472Z,7.50
2023-03-19T07:42:31.217Z,6.62
2023-03-19T07:47:36.290Z,6.28
2023-03-19T07:52:40.088Z,5.90
2023-03-19T07:57:44.022Z,5.90
2023-03-19T08:02:49.202Z,6.47
2023-03-19T08:07:53.031Z,12.00
2023-03-19T08:12:56.765Z,14.27
2023-03-19T08:18:03.464Z,19.70
2023-03-19T08:23:07.293Z,21.02
2023-03-19T08:28:11.103Z,24.10
2023-03-19T08:33:16.671Z,23.62
2023-03-19T08:38:20.516Z,19.55
2023-03-19T08:43:24.218Z,19.40
2023-03-19T08:48:29.648Z,17.77
2023-03-19T08:53:34.593Z,18.10
2023-03-19T08:58:38.441Z,18.10
2023-03-19T09:03:45.642Z,18.50
2023-03-19T09:08:49.432Z,17.92
2023-03-19T09:13:53.175Z,18.15
2023-03-19T09:18:59.462Z,18.00
2023-03-19T09:24:03.564Z,17.60
2023-03-19T09:29:07.345Z,17.25
2023-03-19T09:34:13.927Z,17.27
2023-03-19T09:39:17.662Z,17.25
2023-03-19T09:44:27.977Z,16.23
2023-03-19T09:49:38.682Z,17.08
2023-03-19T09:54:48.331Z,16.40
2023-03-19T09:59:53.199Z,17.30
2023-03-19T10:05:09.401Z,15.50
2023-03-19T10:10:46.531Z,13.30
2023-03-19T10:15:52.802Z,13.23
2023-03-19T10:21:01.585Z,14.23
2023-03-19T10:26:10.291Z,14.60
2023-03-19T10:31:27.873Z,15.45
2023-03-19T10:36:36.539Z,16.15
2023-03-19T10:41:50.149Z,16.95
2023-03-19T10:46:53.906Z,18.73
2023-03-19T10:51:59.595Z,19.70
2023-03-19T10:57:03.604Z,19.65
2023-03-19T11:02:18.416Z,19.83
2023-03-19T11:07:26.379Z,18.98
2023-03-19T11:12:34.879Z,17.20
2023-03-19T11:17:40.122Z,17.27
2023-03-19T11:22:46.044Z,18.73
2023-03-19T11:27:59.725Z,17.37
2023-03-19T11:33:31.662Z,17.62
2023-03-19T11:38:46.743Z,19.15
2023-03-19T11:43:58.563Z,19.02
2023-03-19T11:49:16.434Z,19.20
2023-03-19T11:54:28.730Z,19.55
2023-03-19T11:59:45.228Z,18.05
2023-03-19T12:05:18.632Z,19.73
2023-03-19T12:10:34.041Z,19.48
2023-03-19T12:15:47.418Z,18.23
2023-03-19T12:21:00.588Z,18.40
2023-03-19T12:26:08.713Z,18.90
2023-03-19T12:31:34.667Z,19.02
2023-03-19T12:36:47.172Z,18.95
2023-03-19T12:41:53.380Z,18.95
2023-03-19T12:47:02.040Z,18.10
2023-03-19T12:52:14.769Z,17.95
2023-03-19T12:57:27.665Z,17.17
2023-03-19T13:02:36.583Z,18.55
2023-03-19T13:07:51.262Z,16.08
2023-03-19T13:12:57.775Z,15.82
2023-03-19T13:18:15.525Z,15.95
2023-03-19T13:23:25.383Z,15.32
2023-03-19T13:28:33.483Z,13.65
2023-03-19T13:38:46.280Z,9.75
2023-03-19T13:43:57.375Z,10.43
2023-03-19T13:49:10.965Z,9.95
2023-03-19T13:54:18.806Z,10.23
2023-03-19T14:04:34.253Z,11.60
2023-03-19T14:09:42.152Z,11.50
2023-03-19T14:19:54.326Z,9.55
2023-03-19T14:25:14.070Z,11.25
2023-03-19T14:30:30.871Z,11.38
2023-03-19T14:35:40.430Z,11.85
2023-03-19T14:40:47.389Z,11.80
2023-03-19T14:46:00.172Z,11.40
2023-03-19T14:51:37.683Z,11.30
2023-03-19T14:56:41.762Z,11.20
2023-03-19T15:01:51.205Z,10.65
2023-03-19T15:06:59.111Z,12.63
2023-03-19T15:12:31.431Z,11.45
2023-03-19T15:17:38.923Z,9.25
2023-03-19T15:22:42.841Z,9.40
2023-03-19T15:27:46.683Z,10.07
2023-03-19T15:33:08.081Z,9.15
2023-03-19T15:38:16.101Z,8.55
2023-03-19T15:43:20.444Z,7.57
2023-03-19T15:48:28.700Z,6.75
2023-03-19T15:53:35.465Z,6.47
2023-03-19T15:58:42.737Z,5.57
2023-03-19T16:03:53.043Z,6.23
2023-03-19T16:09:08.488Z,6.37
2023-03-19T16:14:23.048Z,6.50
2023-03-19T16:19:34.048Z,6.97
2023-03-19T16:24:41.441Z,6.90
2023-03-19T16:29:47.673Z,7.20
2023-03-19T16:34:55.270Z,6.25
2023-03-19T16:40:00.547Z,6.00
2023-03-19T16:45:18.112Z,5.53
2023-03-19T16:50:29.206Z,5.47
2023-03-19T16:55:35.504Z,5.45
2023-03-19T17:00:39.416Z,4.65
2023-03-19T17:05:45.980Z,5.10
2023-03-19T17:10:52.834Z,4.72
2023-03-19T17:15:59.337Z,4.25
2023-03-19T17:21:09.717Z,4.43
2023-03-19T17:26:17.098Z,5.30
2023-03-19T17:31:24.933Z,4.50
2023-03-19T17:36:30.478Z,3.95
2023-03-19T17:41:35.729Z,4.18
2023-03-19T17:46:41.869Z,3.90
2023-03-19T17:51:47.470Z,5.05
2023-03-19T17:56:51.188Z,5.18
2023-03-19T18:01:55.114Z,4.60
2023-03-19T18:07:00.641Z,5.68
2023-03-19T18:12:04.695Z,5.18
2023-03-19T18:17:08.827Z,4.47
2023-03-19T18:22:16.156Z,4.00
2023-03-19T18:27:22.666Z,3.62
2023-03-19T18:32:29.599Z,2.70
2023-03-19T18:37:36.311Z,2.75
2023-03-19T18:42:40.107Z,3.28
2023-03-19T18:47:44.847Z,3.97
2023-03-19T18:52:51.887Z,3.83
2023-03-19T18:57:59.541Z,3.97
2023-03-19T19:03:03.978Z,4.70
2023-03-19T19:08:15.397Z,5.65
2023-03-19T19:13:22.394Z,6.40
2023-03-19T19:18:29.726Z,5.10
2023-03-19T19:23:34.927Z,4.60
2023-03-19T19:28:41.498Z,4.55
2023-03-19T19:33:45.530Z,4.97
2023-03-19T19:38:52.179Z,6.53
2023-03-19T19:43:57.468Z,7.22
2023-03-19T19:49:01.202Z,7.20
2023-03-19T19:54:06.813Z,7.95
2023-03-19T19:59:16.080Z,6.18
2023-03-19T20:04:21.316Z,6.30
2023-03-19T20:09:27.480Z,5.50
2023-03-19T20:14:31.487Z,4.57
2023-03-19T20:19:35.534Z,3.95
2023-03-19T20:24:40.685Z,4.57
2023-03-19T20:29:44.953Z,5.68
2023-03-19T20:34:48.675Z,5.93
2023-03-19T20:39:53.887Z,4.95
2023-03-19T20:44:59.706Z,5.20
2023-03-19T20:50:03.430Z,4.72
2023-03-19T20:55:15.444Z,4.82
2023-03-19T21:00:27.050Z,4.90
2023-03-19T21:05:36.318Z,5.25
2023-03-19T21:10:43.357Z,5.45
2023-03-19T21:15:49.601Z,5.40
2023-03-19T21:20:57.126Z,6.07
2023-03-19T21:26:09.388Z,6.30
2023-03-19T21:31:17.843Z,6.25
2023-03-19T21:36:21.920Z,7.07
2023-03-19T21:41:30.337Z,8.75
2023-03-19T21:46:35.647Z,7.65
2023-03-19T21:51:39.833Z,6.95
2023-03-19T21:56:46.631Z,7.82
2023-03-19T22:01:50.942Z,8.68
2023-03-19T22:06:54.850Z,8.52
2023-03-19T22:11:59.901Z,8.82
2023-03-19T22:17:03.585Z,8.57
2023-03-19T22:22:07.278Z,7.95
2023-03-19T22:27:17.475Z,8.88
2023-03-19T22:32:21.403Z,8.88
2023-03-19T22:37:27.876Z,9.70
2023-03-19T22:42:32.938Z,10.40
2023-03-19T22:47:39.334Z,10.13
2023-03-19T22:52:43.059Z,10.55
2023-03-19T22:57:49.088Z,12.23
2023-03-19T23:02:57.354Z,10.90
2023-03-19T23:08:03.692Z,13.30
2023-03-19T23:13:10.529Z,12.47
2023-03-19T23:18:19.171Z,12.70
2023-03-19T23:23:22.872Z,11.98
2023-03-19T23:28:33.211Z,11.02
2023-03-19T23:33:37.244Z,12.25
2023-03-19T23:38:41.163Z,12.43
2023-03-19T23:43:47.461Z,11.40
2023-03-19T23:48:51.621Z,11.90
2023-03-19T23:53:55.332Z,11.23
2023-03-19T23:59:00.686Z,11.07
